Time;durP1;ratioP1;P1;durP2;ratioP2;P2;SDS_P1;SDS_P2;PMS_P1;PMS_P2;Temp;Humidity;BMP_temperature;BMP_pressure;BME280_temperature;BME280_humidity;BME280_pressure;Samples;Min_cycle;Max_cycle;Signal;HPM_P1;HPM_P2
2021/11/06 00:00:18;;;;;;;10.93;7.18;;;;;;;;;;4975418;28;20113;-87
2021/11/06 00:02:44;;;;;;;10.05;6.93;;;;;;;;;;4971561;28;20073;-88
2021/11/06 00:05:10;;;;;;;10.73;6.97;;;;;;;;;;4993455;28;20129;-89
2021/11/06 00:07:36;;;;;;;10.13;6.97;;;;;;;;;;4989686;28;20026;-88
2021/11/06 00:10:02;;;;;;;10.27;7.05;;;;;;;;;;4976182;28;20796;-87
2021/11/06 00:12:28;;;;;;;10.55;7.03;;;;;;;;;;4975631;28;20048;-88
2021/11/06 00:14:55;;;;;;;9.98;7.20;;;;;;;;;;4977603;28;20022;-87
2021/11/06 00:17:21;;;;;;;10.98;7.25;;;;;;;;;;4976978;28;20031;-87
2021/11/06 00:19:47;;;;;;;9.55;6.78;;;;;;;;;;4977508;28;20037;-88
2021/11/06 00:22:13;;;;;;;10.70;7.35;;;;;;;;;;4977257;28;20034;-87
2021/11/06 00:24:39;;;;;;;10.25;6.78;;;;;;;;;;4994551;28;20026;-87
2021/11/06 00:27:05;;;;;;;10.38;7.15;;;;;;;;;;4976721;28;20030;-88
2021/11/06 00:29:31;;;;;;;10.10;7.47;;;;;;;;;;4976541;28;20034;-87
2021/11/06 00:31:57;;;;;;;11.30;7.68;;;;;;;;;;4972863;28;20117;-88
2021/11/06 00:34:23;;;;;;;10.52;6.65;;;;;;;;;;4957642;28;20118;-87
2021/11/06 00:36:49;;;;;;;11.10;7.93;;;;;;;;;;4959305;28;20066;-88
2021/11/06 00:39:15;;;;;;;10.38;7.82;;;;;;;;;;4976611;28;20117;-87
2021/11/06 00:41:41;;;;;;;10.05;7.18;;;;;;;;;;4975461;28;20064;-87
2021/11/06 00:44:08;;;;;;;10.13;7.05;;;;;;;;;;4977077;28;20030;-87
2021/11/06 00:46:34;;;;;;;10.48;7.50;;;;;;;;;;4977495;28;20022;-87
2021/11/06 00:49:00;;;;;;;9.38;6.63;;;;;;;;;;4976964;28;20129;-87
2021/11/06 00:51:26;;;;;;;9.75;7.00;;;;;;;;;;4979055;28;20492;-88
2021/11/06 00:53:52;;;;;;;9.20;6.72;;;;;;;;;;4977585;28;20030;-87
2021/11/06 00:56:18;;;;;;;9.85;7.03;;;;;;;;;;4974491;28;20663;-88
2021/11/06 00:58:44;;;;;;;9.35;6.50;;;;;;;;;;4974217;28;20080;-88
2021/11/06 01:01:10;;;;;;;9.88;7.03;;;;;;;;;;4976840;28;20466;-88
2021/11/06 01:03:37;;;;;;;9.32;6.50;;;;;;;;;;4977369;28;20027;-88
2021/11/06 01:06:03;;;;;;;9.02;6.55;;;;;;;;;;4974454;28;20022;-88
2021/11/06 01:08:29;;;;;;;9.98;6.72;;;;;;;;;;4955696;28;20060;-88
2021/11/06 01:10:55;;;;;;;9.60;6.53;;;;;;;;;;4994707;28;20015;-88
2021/11/06 01:13:21;;;;;;;10.70;6.47;;;;;;;;;;4978329;28;20033;-88
2021/11/06 01:15:47;;;;;;;9.32;6.03;;;;;;;;;;4995742;28;20029;-88
2021/11/06 01:18:13;;;;;;;9.20;5.78;;;;;;;;;;4962371;28;20105;-89
2021/11/06 01:20:39;;;;;;;8.93;6.20;;;;;;;;;;4967176;28;20427;-88
2021/11/06 01:23:05;;;;;;;10.45;5.80;;;;;;;;;;4993842;28;20041;-88
2021/11/06 01:25:31;;;;;;;8.38;6.22;;;;;;;;;;4976692;28;20030;-89
2021/11/06 01:27:57;;;;;;;9.10;6.00;;;;;;;;;;4976136;28;20030;-89
2021/11/06 01:30:24;;;;;;;8.60;5.82;;;;;;;;;;4975566;28;20018;-88
2021/11/06 01:32:50;;;;;;;8.75;5.88;;;;;;;;;;4975791;28;20027;-88
2021/11/06 01:35:18;;;;;;;8.77;6.10;;;;;;;;;;4975956;28;20073;-88
2021/11/06 01:37:45;;;;;;;9.43;5.82;;;;;;;;;;4975948;28;20357;-88
2021/11/06 01:40:12;;;;;;;9.40;6.05;;;;;;;;;;4976180;28;20026;-88
2021/11/06 01:42:41;;;;;;;9.23;6.20;;;;;;;;;;4976357;28;20034;-89
2021/11/06 01:45:09;;;;;;;8.57;5.97;;;;;;;;;;4976206;28;20077;-89
2021/11/06 01:47:35;;;;;;;8.88;6.10;;;;;;;;;;4976165;28;20053;-89
2021/11/06 01:50:01;;;;;;;8.25;5.65;;;;;;;;;;4976038;28;20423;-89
2021/11/06 01:52:27;;;;;;;8.30;5.68;;;;;;;;;;4975049;28;20037;-89
2021/11/06 01:54:53;;;;;;;8.13;6.05;;;;;;;;;;4975798;28;20034;-89
2021/11/06 01:57:20;;;;;;;9.82;6.50;;;;;;;;;;4992627;28;20018;-89
2021/11/06 01:59:46;;;;;;;8.05;6.07;;;;;;;;;;4993166;28;20026;-88
2021/11/06 02:02:12;;;;;;;9.38;6.28;;;;;;;;;;4972602;28;20043;-89
2021/11/06 02:04:38;;;;;;;8.68;6.30;;;;;;;;;;4975502;28;20026;-88
2021/11/06 02:07:04;;;;;;;9.75;6.55;;;;;;;;;;4975079;28;20448;-89
2021/11/06 02:09:31;;;;;;;8.73;6.70;;;;;;;;;;4975405;28;20027;-89
2021/11/06 02:11:57;;;;;;;9.60;5.80;;;;;;;;;;4974996;28;20022;-89
2021/11/06 02:14:24;;;;;;;9.77;5.97;;;;;;;;;;4975715;28;20037;-88
2021/11/06 02:16:52;;;;;;;7.90;5.68;;;;;;;;;;4975597;28;20492;-88
2021/11/06 02:19:18;;;;;;;8.95;6.40;;;;;;;;;;4975504;28;20117;-87
2021/11/06 02:21:46;;;;;;;9.65;6.40;;;;;;;;;;4975704;28;20456;-91
2021/11/06 02:24:15;;;;;;;8.60;6.07;;;;;;;;;;4976011;28;20061;-91
2021/11/06 02:26:41;;;;;;;9.60;6.00;;;;;;;;;;4976008;28;20022;-91
2021/11/06 02:29:07;;;;;;;9.02;6.53;;;;;;;;;;4975678;28;20081;-90
2021/11/06 02:31:33;;;;;;;9.43;6.15;;;;;;;;;;4976160;28;20019;-91
2021/11/06 02:33:59;;;;;;;8.98;5.88;;;;;;;;;;4975910;28;20045;-90
2021/11/06 02:36:26;;;;;;;9.93;5.72;;;;;;;;;;4975522;28;20027;-90
2021/11/06 02:38:52;;;;;;;8.02;5.50;;;;;;;;;;4975707;28;20444;-90
2021/11/06 02:41:18;;;;;;;8.18;5.63;;;;;;;;;;4975776;28;20026;-91
2021/11/06 02:43:44;;;;;;;9.98;6.45;;;;;;;;;;4993569;28;20026;-91
2021/11/06 02:46:10;;;;;;;8.70;6.00;;;;;;;;;;4993164;28;20022;-91
2021/11/06 02:48:36;;;;;;;9.52;6.90;;;;;;;;;;4976316;28;20058;-91
2021/11/06 02:51:02;;;;;;;9.98;6.32;;;;;;;;;;4976676;28;20045;-91
2021/11/06 02:53:29;;;;;;;8.93;6.22;;;;;;;;;;4975986;28;20538;-91
2021/11/06 02:55:55;;;;;;;9.43;6.07;;;;;;;;;;4978109;28;20114;-91
2021/11/06 02:58:21;;;;;;;8.95;6.00;;;;;;;;;;4976427;28;20027;-91
2021/11/06 03:00:47;;;;;;;8.80;5.88;;;;;;;;;;4975046;28;20047;-91
2021/11/06 03:03:13;;;;;;;9.27;6.40;;;;;;;;;;4993759;28;20030;-91
2021/11/06 03:05:39;;;;;;;9.75;6.85;;;;;;;;;;4979173;28;20034;-89
2021/11/06 03:08:05;;;;;;;11.18;6.60;;;;;;;;;;4980438;28;20026;-88
2021/11/06 03:10:31;;;;;;;10.55;6.68;;;;;;;;;;4997548;28;20053;-88
2021/11/06 03:12:57;;;;;;;9.70;6.70;;;;;;;;;;4997311;28;20023;-88
2021/11/06 03:15:23;;;;;;;10.30;6.50;;;;;;;;;;4997107;28;20027;-88
2021/11/06 03:17:50;;;;;;;10.27;6.60;;;;;;;;;;4979617;28;20026;-88
2021/11/06 03:20:18;;;;;;;10.40;6.53;;;;;;;;;;4979926;28;20074;-88
2021/11/06 03:22:44;;;;;;;10.18;6.78;;;;;;;;;;4997333;28;20023;-88
2021/11/06 03:25:11;;;;;;;9.27;6.53;;;;;;;;;;4979730;28;20050;-88
2021/11/06 03:27:37;;;;;;;11.48;7.63;;;;;;;;;;4997201;28;20029;-88
2021/11/06 03:30:08;;;;;;;10.13;6.93;;;;;;;;;;4979752;28;20026;-88
2021/11/06 03:32:34;;;;;;;11.77;7.25;;;;;;;;;;4979477;28;20046;-88
2021/11/06 03:35:00;;;;;;;10.32;7.43;;;;;;;;;;4978798;28;20365;-88
2021/11/06 03:37:26;;;;;;;10.32;6.88;;;;;;;;;;4976704;28;20030;-88
2021/11/06 03:39:55;;;;;;;9.88;6.63;;;;;;;;;;4979247;28;20034;-88
2021/11/06 03:42:21;;;;;;;11.70;7.53;;;;;;;;;;4979367;28;20038;-88
2021/11/06 03:44:47;;;;;;;12.35;8.43;;;;;;;;;;4979378;28;20404;-88
2021/11/06 03:47:13;;;;;;;12.55;6.95;;;;;;;;;;4979366;28;20065;-88
2021/11/06 03:49:40;;;;;;;12.10;7.53;;;;;;;;;;4979206;28;20026;-88
2021/11/06 03:52:06;;;;;;;11.00;7.60;;;;;;;;;;4978335;28;20023;-88
2021/11/06 03:54:32;;;;;;;13.20;8.85;;;;;;;;;;4996801;28;20034;-88
2021/11/06 03:56:58;;;;;;;11.27;7.43;;;;;;;;;;4978751;28;20056;-88
2021/11/06 03:59:24;;;;;;;13.13;8.10;;;;;;;;;;4978634;28;20547;-87
2021/11/06 04:01:51;;;;;;;11.68;8.15;;;;;;;;;;4977548;28;20085;-87
2021/11/06 04:04:17;;;;;;;12.82;8.52;;;;;;;;;;4995869;28;20054;-87
2021/11/06 04:06:43;;;;;;;14.55;9.60;;;;;;;;;;4978712;28;20030;-87
2021/11/06 04:09:09;;;;;;;11.25;8.07;;;;;;;;;;4979218;28;20092;-87
2021/11/06 04:11:35;;;;;;;11.10;7.32;;;;;;;;;;4978971;28;20053;-87
2021/11/06 04:14:01;;;;;;;13.13;8.63;;;;;;;;;;4978789;28;20031;-87
2021/11/06 04:16:27;;;;;;;12.50;8.55;;;;;;;;;;4981501;28;20511;-88
2021/11/06 04:18:53;;;;;;;13.15;8.60;;;;;;;;;;4980045;28;20041;-87
2021/11/06 04:21:19;;;;;;;13.32;8.95;;;;;;;;;;4979804;28;20125;-87
2021/11/06 04:23:46;;;;;;;14.38;10.23;;;;;;;;;;4980109;28;20049;-87
2021/11/06 04:26:12;;;;;;;13.57;9.68;;;;;;;;;;4980376;28;20037;-87
2021/11/06 04:28:39;;;;;;;14.50;9.55;;;;;;;;;;4979930;28;20482;-87
2021/11/06 04:31:05;;;;;;;14.02;9.77;;;;;;;;;;4979491;28;20014;-87
2021/11/06 04:33:31;;;;;;;17.02;9.65;;;;;;;;;;4983244;28;20045;-87
2021/11/06 04:35:57;;;;;;;13.45;9.00;;;;;;;;;;4988174;28;20041;-87
2021/11/06 04:38:23;;;;;;;16.02;10.25;;;;;;;;;;5001878;28;20038;-88
2021/11/06 04:40:49;;;;;;;15.18;10.40;;;;;;;;;;5002324;28;20019;-88
2021/11/06 04:43:16;;;;;;;15.80;10.05;;;;;;;;;;5019058;28;20053;-86
2021/11/06 04:45:42;;;;;;;16.58;10.73;;;;;;;;;;4972610;28;20428;-88
2021/11/06 04:48:08;;;;;;;14.88;10.27;;;;;;;;;;4970173;28;20030;-88
2021/11/06 04:50:34;;;;;;;16.98;11.32;;;;;;;;;;4995804;28;20026;-87
2021/11/06 04:53:00;;;;;;;18.42;11.75;;;;;;;;;;4977624;28;20065;-87
2021/11/06 04:55:27;;;;;;;15.82;11.50;;;;;;;;;;4966632;28;20045;-86
2021/11/06 04:57:53;;;;;;;16.48;11.10;;;;;;;;;;4986501;28;20457;-87
2021/11/06 05:00:19;;;;;;;16.70;11.93;;;;;;;;;;4959170;28;20035;-87
2021/11/06 05:02:45;;;;;;;16.77;11.68;;;;;;;;;;4959007;28;20524;-87
2021/11/06 05:05:11;;;;;;;18.63;11.50;;;;;;;;;;4994690;28;20026;-87
2021/11/06 05:07:37;;;;;;;18.05;11.73;;;;;;;;;;4977060;28;20106;-88
2021/11/06 05:10:05;;;;;;;18.13;11.85;;;;;;;;;;4977220;28;20030;-88
2021/11/06 05:12:32;;;;;;;16.15;11.18;;;;;;;;;;4977135;28;20110;-88
2021/11/06 05:14:58;;;;;;;18.35;12.23;;;;;;;;;;4996273;28;20034;-88
2021/11/06 05:17:24;;;;;;;20.02;12.43;;;;;;;;;;4977156;28;20022;-91
2021/11/06 05:19:51;;;;;;;18.75;12.77;;;;;;;;;;4977301;28;20062;-90
2021/11/06 05:22:17;;;;;;;19.05;12.32;;;;;;;;;;4977235;28;20117;-90
2021/11/06 05:24:43;;;;;;;20.50;12.93;;;;;;;;;;4977192;28;20093;-89
2021/11/06 05:27:10;;;;;;;18.85;12.77;;;;;;;;;;4976835;28;20058;-90
2021/11/06 05:29:36;;;;;;;17.83;12.90;;;;;;;;;;4977180;28;20026;-90
2021/11/06 05:32:02;;;;;;;20.08;13.48;;;;;;;;;;4977249;28;20479;-90
2021/11/06 05:34:28;;;;;;;18.30;12.75;;;;;;;;;;4977071;28;20030;-90
2021/11/06 05:36:54;;;;;;;17.95;12.13;;;;;;;;;;4994766;28;20054;-89
2021/11/06 05:39:21;;;;;;;18.27;11.93;;;;;;;;;;4992994;28;20050;-89
2021/11/06 05:41:47;;;;;;;18.85;12.55;;;;;;;;;;4976847;28;20114;-90
2021/11/06 05:44:13;;;;;;;17.85;12.30;;;;;;;;;;4994193;28;20472;-89
2021/11/06 05:46:39;;;;;;;17.88;11.90;;;;;;;;;;4976991;28;20054;-90
2021/11/06 05:49:37;;;;;;;18.63;12.55;;;;;;;;;;4976633;28;20018;-90
2021/11/06 05:52:04;;;;;;;15.98;11.40;;;;;;;;;;4976590;28;20489;-90
2021/11/06 05:54:30;;;;;;;17.05;11.23;;;;;;;;;;4990564;28;20432;-89
2021/11/06 05:56:56;;;;;;;17.60;11.50;;;;;;;;;;4976234;28;20385;-88
2021/11/06 05:59:22;;;;;;;16.02;11.65;;;;;;;;;;4957044;28;20425;-90
2021/11/06 06:01:48;;;;;;;16.80;11.05;;;;;;;;;;4949068;28;20051;-90
2021/11/06 06:04:14;;;;;;;16.67;11.32;;;;;;;;;;4937890;29;20122;-89
2021/11/06 06:06:41;;;;;;;16.23;11.50;;;;;;;;;;4938081;29;20127;-90
2021/11/06 06:09:07;;;;;;;17.58;11.77;;;;;;;;;;4955006;29;20074;-89
2021/11/06 06:11:33;;;;;;;17.92;12.02;;;;;;;;;;4940902;29;20024;-90
2021/11/06 06:13:59;;;;;;;17.00;11.75;;;;;;;;;;4943501;28;20037;-89
2021/11/06 06:16:26;;;;;;;16.15;11.70;;;;;;;;;;4974544;28;20027;-89
2021/11/06 06:18:52;;;;;;;17.50;10.82;;;;;;;;;;4974571;28;20030;-90
2021/11/06 06:21:18;;;;;;;18.40;12.43;;;;;;;;;;4957184;28;20484;-89
2021/11/06 06:23:44;;;;;;;19.17;13.48;;;;;;;;;;4957093;28;20127;-90
2021/11/06 06:26:11;;;;;;;19.55;13.57;;;;;;;;;;4956296;28;20019;-91
2021/11/06 06:28:37;;;;;;;19.48;13.27;;;;;;;;;;4944826;28;20046;-91
2021/11/06 06:31:03;;;;;;;17.30;12.27;;;;;;;;;;4937616;29;20076;-91
2021/11/06 06:33:30;;;;;;;16.13;12.15;;;;;;;;;;4937769;29;20019;-90
2021/11/06 06:35:56;;;;;;;18.45;12.75;;;;;;;;;;4955501;28;20050;-91
2021/11/06 06:38:22;;;;;;;20.70;13.52;;;;;;;;;;4957655;28;20054;-90
2021/11/06 06:40:49;;;;;;;20.02;12.73;;;;;;;;;;4961663;28;20058;-90
2021/11/06 06:43:15;;;;;;;19.38;13.00;;;;;;;;;;4961184;28;20469;-91
2021/11/06 06:45:41;;;;;;;18.98;12.05;;;;;;;;;;4978855;28;20034;-91
2021/11/06 06:48:07;;;;;;;17.63;12.50;;;;;;;;;;4960465;28;20058;-88
2021/11/06 06:50:33;;;;;;;18.15;12.80;;;;;;;;;;4960962;28;20477;-88
2021/11/06 06:52:59;;;;;;;16.08;11.32;;;;;;;;;;4959872;28;20022;-88
2021/11/06 06:55:26;;;;;;;16.67;10.50;;;;;;;;;;4959477;28;20050;-88
2021/11/06 06:57:52;;;;;;;16.13;11.50;;;;;;;;;;4959268;28;20027;-88
2021/11/06 07:00:18;;;;;;;16.38;11.18;;;;;;;;;;4960227;28;20126;-88
2021/11/06 07:02:44;;;;;;;15.63;11.13;;;;;;;;;;4973873;28;20053;-88
2021/11/06 07:05:14;;;;;;;16.98;12.35;;;;;;;;;;4979319;28;20392;-88
2021/11/06 07:07:40;;;;;;;15.23;11.40;;;;;;;;;;4978542;28;20038;-88
2021/11/06 07:10:06;;;;;;;13.60;10.68;;;;;;;;;;4976564;28;20054;-88
2021/11/06 07:12:33;;;;;;;14.43;10.80;;;;;;;;;;4974535;28;21443;-88
2021/11/06 07:14:59;;;;;;;13.80;11.23;;;;;;;;;;4992626;28;20031;-89
2021/11/06 07:17:25;;;;;;;14.43;10.10;;;;;;;;;;4979900;28;20554;-89
2021/11/06 07:19:51;;;;;;;13.80;10.00;;;;;;;;;;4995097;28;20033;-89
2021/11/06 07:22:18;;;;;;;13.32;10.35;;;;;;;;;;4979378;28;20053;-89
2021/11/06 07:24:44;;;;;;;14.15;11.02;;;;;;;;;;4978939;28;20061;-89
2021/11/06 07:27:10;;;;;;;13.45;10.45;;;;;;;;;;4997607;28;20027;-89
2021/11/06 07:29:37;;;;;;;14.75;11.27;;;;;;;;;;4979402;28;20440;-89
2021/11/06 07:32:07;;;;;;;13.98;11.23;;;;;;;;;;4988959;28;20088;-89
2021/11/06 07:34:33;;;;;;;13.50;11.40;;;;;;;;;;4964249;28;20057;-89
2021/11/06 07:37:00;;;;;;;13.38;10.75;;;;;;;;;;4978642;28;20023;-89
2021/11/06 07:39:26;;;;;;;14.90;12.20;;;;;;;;;;4995756;28;20109;-88
2021/11/06 07:41:53;;;;;;;14.75;11.50;;;;;;;;;;4978591;28;20488;-88
2021/11/06 07:44:19;;;;;;;14.88;12.10;;;;;;;;;;4994928;28;20495;-88
2021/11/06 07:46:45;;;;;;;15.88;12.00;;;;;;;;;;4977908;28;20034;-89
2021/11/06 07:49:11;;;;;;;15.65;11.32;;;;;;;;;;4978694;28;20057;-88
2021/11/06 07:51:37;;;;;;;14.27;11.63;;;;;;;;;;4981107;28;20467;-89
2021/11/06 07:54:03;;;;;;;21.73;15.40;;;;;;;;;;4981754;28;20054;-89
2021/11/06 07:56:30;;;;;;;18.15;13.60;;;;;;;;;;4980650;28;20037;-89
2021/11/06 07:58:57;;;;;;;16.17;11.82;;;;;;;;;;4981640;28;20034;-89
2021/11/06 08:01:23;;;;;;;12.52;11.13;;;;;;;;;;4980041;28;20026;-89
2021/11/06 08:03:49;;;;;;;12.77;10.48;;;;;;;;;;4977934;28;20464;-89
2021/11/06 08:06:18;;;;;;;13.32;10.75;;;;;;;;;;4976387;28;20073;-89
2021/11/06 08:08:44;;;;;;;12.80;10.68;;;;;;;;;;4977781;28;20030;-89
2021/11/06 08:11:10;;;;;;;12.25;9.73;;;;;;;;;;4976109;28;20034;-89
2021/11/06 08:13:36;;;;;;;11.20;9.82;;;;;;;;;;4978333;28;20369;-89
2021/11/06 08:16:02;;;;;;;11.43;9.50;;;;;;;;;;4995257;28;20018;-89
2021/11/06 08:18:29;;;;;;;10.40;9.30;;;;;;;;;;4977974;28;20045;-89
2021/11/06 08:20:55;;;;;;;11.18;8.52;;;;;;;;;;4979695;28;20085;-89
2021/11/06 08:23:22;;;;;;;11.00;9.32;;;;;;;;;;4996407;28;20065;-89
2021/11/06 08:25:48;;;;;;;11.57;9.63;;;;;;;;;;4992770;28;20148;-89
2021/11/06 08:28:14;;;;;;;12.43;9.90;;;;;;;;;;4978882;28;20022;-89
2021/11/06 08:30:40;;;;;;;10.02;8.77;;;;;;;;;;4978655;28;20480;-89
2021/11/06 08:33:07;;;;;;;10.70;8.45;;;;;;;;;;4979973;28;20473;-89
2021/11/06 08:35:33;;;;;;;9.27;7.80;;;;;;;;;;4996604;28;20026;-88
2021/11/06 08:38:00;;;;;;;11.52;9.32;;;;;;;;;;4974495;28;20022;-89
2021/11/06 08:40:27;;;;;;;11.18;8.98;;;;;;;;;;4979184;28;20028;-88
2021/11/06 08:42:53;;;;;;;11.13;8.95;;;;;;;;;;4994162;28;20034;-89
2021/11/06 08:45:20;;;;;;;12.70;8.45;;;;;;;;;;4977413;28;20022;-90
2021/11/06 08:47:46;;;;;;;11.70;8.70;;;;;;;;;;4977408;28;20110;-89
2021/11/06 08:50:14;;;;;;;12.27;8.70;;;;;;;;;;4977320;28;20026;-89
2021/11/06 08:52:41;;;;;;;11.38;8.50;;;;;;;;;;4977346;28;20062;-89
2021/11/06 08:55:07;;;;;;;11.55;8.30;;;;;;;;;;4977828;28;20026;-89
2021/11/06 08:57:34;;;;;;;10.07;6.95;;;;;;;;;;4976877;28;20033;-88
2021/11/06 09:00:06;;;;;;;10.50;7.63;;;;;;;;;;4994317;28;20047;-88
2021/11/06 09:02:33;;;;;;;10.60;7.72;;;;;;;;;;4994407;28;20022;-86
2021/11/06 11:35:40;;;;;;;9.60;7.78;;;;;;;;;;5007344;28;20076;-90
2021/11/06 11:38:07;;;;;;;9.65;7.80;;;;;;;;;;4995100;28;20038;-91
2021/11/06 11:40:36;;;;;;;9.05;7.30;;;;;;;;;;4999797;28;20175;-91
2021/11/06 11:43:21;;;;;;;7.75;5.97;;;;;;;;;;4981323;28;20019;-91
2021/11/06 11:45:57;;;;;;;7.55;5.60;;;;;;;;;;4998942;28;20027;-89
2021/11/06 11:48:24;;;;;;;8.07;6.13;;;;;;;;;;4967176;28;20024;-89
2021/11/06 11:50:51;;;;;;;8.55;6.15;;;;;;;;;;4998805;28;20031;-89
2021/11/06 11:53:47;;;;;;;7.85;6.00;;;;;;;;;;4982277;28;20027;-89
2021/11/06 11:56:23;;;;;;;8.32;5.72;;;;;;;;;;4980270;28;20061;-89
2021/11/06 11:58:49;;;;;;;7.55;5.57;;;;;;;;;;4983240;28;20124;-89
2021/11/06 12:01:19;;;;;;;6.30;4.70;;;;;;;;;;4981876;28;20181;-88
2021/11/06 12:03:47;;;;;;;6.57;4.55;;;;;;;;;;4980188;28;20110;-89
2021/11/06 12:06:24;;;;;;;6.68;4.88;;;;;;;;;;4979759;28;20030;-89
2021/11/06 12:08:53;;;;;;;6.72;4.70;;;;;;;;;;4980902;28;20022;-88
2021/11/06 12:11:21;;;;;;;6.60;4.88;;;;;;;;;;4982053;28;20037;-90
2021/11/06 12:13:51;;;;;;;8.45;6.03;;;;;;;;;;4998849;28;20033;-90
2021/11/06 12:16:19;;;;;;;7.25;5.60;;;;;;;;;;4981278;28;20488;-89
2021/11/06 12:18:45;;;;;;;7.40;4.80;;;;;;;;;;4978895;28;20019;-89
2021/11/06 12:23:38;;;;;;;7.88;5.38;;;;;;;;;;4995295;28;20026;-90
2021/11/06 12:26:16;;;;;;;7.05;4.53;;;;;;;;;;4977602;28;20023;-90
2021/11/06 12:28:42;;;;;;;5.00;2.60;;;;;;;;;;4978094;28;20030;-89
2021/11/06 12:31:27;;;;;;;5.43;3.00;;;;;;;;;;4978456;28;20033;-89
2021/11/06 12:33:53;;;;;;;4.78;2.25;;;;;;;;;;4995666;28;20349;-90
2021/11/06 14:00:24;;;;;;;4.65;2.53;;;;;;;;;;4975661;28;20102;-91
2021/11/06 14:02:50;;;;;;;4.80;2.58;;;;;;;;;;4958876;28;20121;-91
2021/11/06 14:05:18;;;;;;;5.05;2.60;;;;;;;;;;4962842;28;20467;-91
2021/11/06 14:07:51;;;;;;;4.97;2.50;;;;;;;;;;4959639;28;20031;-91
2021/11/06 14:10:22;;;;;;;5.53;2.45;;;;;;;;;;4958941;28;20081;-91
2021/11/06 14:12:50;;;;;;;4.60;1.90;;;;;;;;;;4961526;28;20031;-91
2021/11/06 14:15:38;;;;;;;4.78;2.55;;;;;;;;;;4978617;28;20038;-91
2021/11/06 14:18:08;;;;;;;5.55;3.42;;;;;;;;;;4978159;28;20030;-91
2021/11/06 14:20:37;;;;;;;5.05;3.00;;;;;;;;;;4995241;28;20022;-90
2021/11/06 14:23:04;;;;;;;5.38;2.55;;;;;;;;;;4977040;28;20058;-90
2021/11/06 14:25:30;;;;;;;4.45;2.28;;;;;;;;;;4993983;28;20507;-89
2021/11/06 14:28:17;;;;;;;5.80;2.58;;;;;;;;;;4976125;28;20029;-91
2021/11/06 14:30:47;;;;;;;6.60;2.63;;;;;;;;;;4977430;28;20480;-91
2021/11/06 14:33:21;;;;;;;5.07;2.30;;;;;;;;;;4995002;28;20018;-91
2021/11/06 14:35:48;;;;;;;4.25;2.30;;;;;;;;;;4977522;28;20127;-91
2021/11/06 14:38:14;;;;;;;4.43;1.88;;;;;;;;;;4977379;28;20112;-91
2021/11/06 14:41:00;;;;;;;4.88;2.40;;;;;;;;;;4976827;28;20034;-91
2021/11/06 14:43:26;;;;;;;5.13;2.38;;;;;;;;;;4995101;28;20076;-90
2021/11/06 14:45:59;;;;;;;6.65;4.30;;;;;;;;;;4977929;28;20023;-91
2021/11/06 14:48:25;;;;;;;5.28;3.38;;;;;;;;;;4977515;28;20026;-91
2021/11/06 14:51:04;;;;;;;6.72;3.55;;;;;;;;;;4994699;28;20476;-91
2021/11/06 14:53:30;;;;;;;7.90;3.72;;;;;;;;;;4978010;28;20022;-91
2021/11/06 14:56:00;;;;;;;5.30;2.75;;;;;;;;;;4977398;28;20125;-91
2021/11/06 14:58:49;;;;;;;5.70;3.10;;;;;;;;;;4977229;28;20030;-91
2021/11/06 15:01:16;;;;;;;7.45;4.28;;;;;;;;;;4981031;28;20034;-91
2021/11/06 15:03:54;;;;;;;8.18;4.28;;;;;;;;;;4983424;28;20022;-91
2021/11/06 15:06:21;;;;;;;8.30;4.25;;;;;;;;;;4979337;28;20030;-91
2021/11/06 15:08:48;;;;;;;5.85;3.65;;;;;;;;;;4972232;28;20022;-90
2021/11/06 15:11:14;;;;;;;6.25;3.33;;;;;;;;;;4984004;28;20107;-91
2021/11/06 15:13:41;;;;;;;7.55;3.78;;;;;;;;;;4989993;28;20405;-91
2021/11/06 15:16:08;;;;;;;6.47;3.63;;;;;;;;;;4977062;28;20054;-90
2021/11/06 15:18:34;;;;;;;8.00;3.60;;;;;;;;;;4978003;28;20030;-91
2021/11/06 15:21:03;;;;;;;13.98;3.97;;;;;;;;;;4980107;28;20178;-90
2021/11/06 15:23:29;;;;;;;5.07;2.85;;;;;;;;;;4980402;28;20037;-91
2021/11/06 15:25:55;;;;;;;6.85;3.90;;;;;;;;;;4997943;28;20097;-91
2021/11/06 15:28:21;;;;;;;6.18;3.90;;;;;;;;;;4980463;28;20445;-90
2021/11/06 15:30:50;;;;;;;6.35;3.28;;;;;;;;;;4980870;28;20030;-90
2021/11/06 15:33:16;;;;;;;5.97;3.40;;;;;;;;;;4979642;28;20022;-91
2021/11/06 15:35:42;;;;;;;7.63;4.22;;;;;;;;;;4980015;28;20026;-91
2021/11/06 15:38:08;;;;;;;7.22;4.25;;;;;;;;;;4997689;28;20030;-91
2021/11/06 15:40:35;;;;;;;9.15;4.93;;;;;;;;;;4978990;28;20057;-90
2021/11/06 15:43:02;;;;;;;10.88;5.32;;;;;;;;;;4979515;28;20027;-88
2021/11/06 15:45:28;;;;;;;8.20;4.43;;;;;;;;;;4980638;28;20485;-88
2021/11/06 15:47:55;;;;;;;8.27;4.50;;;;;;;;;;4980106;28;20072;-88
2021/11/06 15:50:21;;;;;;;10.68;5.88;;;;;;;;;;4979852;28;20037;-88
2021/11/06 15:52:53;;;;;;;9.90;4.75;;;;;;;;;;4980080;28;20026;-88
2021/11/06 15:55:20;;;;;;;6.35;3.97;;;;;;;;;;4979611;28;20514;-89
2021/11/06 15:57:46;;;;;;;8.63;4.32;;;;;;;;;;4978824;28;20130;-89
2021/11/06 16:00:14;;;;;;;7.25;4.47;;;;;;;;;;4996868;28;20042;-89
2021/11/06 16:02:40;;;;;;;10.65;4.85;;;;;;;;;;4997004;28;20061;-87
2021/11/06 16:05:07;;;;;;;10.02;4.93;;;;;;;;;;4979128;28;20026;-91
2021/11/06 16:07:35;;;;;;;8.10;3.97;;;;;;;;;;4996557;28;20428;-91
2021/11/06 16:10:01;;;;;;;6.72;4.00;;;;;;;;;;4979948;28;20027;-90
2021/11/06 16:12:27;;;;;;;8.27;4.40;;;;;;;;;;4995785;28;20088;-91
2021/11/06 16:14:56;;;;;;;8.38;5.38;;;;;;;;;;4979445;28;20062;-91
2021/11/06 16:17:24;;;;;;;7.85;4.07;;;;;;;;;;4978858;28;20484;-90
2021/11/06 16:19:50;;;;;;;12.63;5.68;;;;;;;;;;4978477;28;20118;-91
2021/11/06 16:22:20;;;;;;;8.90;4.85;;;;;;;;;;4975063;28;20432;-91
2021/11/06 16:24:47;;;;;;;11.38;5.55;;;;;;;;;;4959624;28;20023;-91
2021/11/06 16:27:14;;;;;;;12.45;6.90;;;;;;;;;;4993692;28;20026;-91
2021/11/06 16:29:40;;;;;;;12.05;7.30;;;;;;;;;;4979784;28;20030;-91
2021/11/06 16:32:06;;;;;;;13.38;6.55;;;;;;;;;;4979222;28;20033;-90
2021/11/06 16:34:32;;;;;;;14.27;9.13;;;;;;;;;;4982407;28;20026;-92
2021/11/06 16:36:58;;;;;;;13.20;8.35;;;;;;;;;;4979618;28;20223;-91
2021/11/06 16:39:25;;;;;;;12.77;9.02;;;;;;;;;;4983827;28;20084;-90
2021/11/06 16:41:51;;;;;;;13.93;8.45;;;;;;;;;;4981479;28;20034;-91
2021/11/06 16:44:17;;;;;;;13.65;9.57;;;;;;;;;;4965168;28;20035;-89
2021/11/06 16:46:43;;;;;;;12.57;8.10;;;;;;;;;;4959972;28;20019;-89
2021/11/06 16:49:11;;;;;;;13.40;9.55;;;;;;;;;;4959306;28;20022;-89
2021/11/06 16:51:37;;;;;;;13.70;9.80;;;;;;;;;;4961138;28;20023;-87
2021/11/06 16:54:03;;;;;;;15.23;11.13;;;;;;;;;;4960149;28;20109;-89
2021/11/06 16:56:29;;;;;;;16.90;10.93;;;;;;;;;;4960975;28;20023;-89
2021/11/06 16:58:55;;;;;;;18.95;12.57;;;;;;;;;;4960164;28;20065;-89
2021/11/06 17:01:22;;;;;;;15.82;12.30;;;;;;;;;;4958503;28;20066;-89
2021/11/06 17:03:50;;;;;;;16.02;8.82;;;;;;;;;;4959071;28;20397;-89
2021/11/06 17:06:17;;;;;;;10.10;6.85;;;;;;;;;;4960460;28;20090;-89
2021/11/06 17:11:19;;;;;;;13.52;7.70;;;;;;;;;;4984335;28;20489;-89
2021/11/06 17:13:49;;;;;;;10.73;6.40;;;;;;;;;;4962844;28;20023;-88
2021/11/06 17:16:15;;;;;;;11.52;6.75;;;;;;;;;;4978530;28;20027;-88
2021/11/06 17:18:41;;;;;;;14.55;9.65;;;;;;;;;;4959869;28;20528;-90
2021/11/06 17:21:08;;;;;;;15.73;9.05;;;;;;;;;;4965766;28;20026;-87
2021/11/06 17:23:35;;;;;;;16.98;9.98;;;;;;;;;;4985878;28;20133;-87
2021/11/06 17:26:02;;;;;;;18.73;12.13;;;;;;;;;;4983350;28;20057;-88
2021/11/06 17:28:28;;;;;;;16.20;11.02;;;;;;;;;;4981123;28;20022;-91
2021/11/06 17:30:54;;;;;;;18.30;11.85;;;;;;;;;;4976303;28;20043;-91
2021/11/06 17:33:21;;;;;;;16.42;11.93;;;;;;;;;;4981395;28;20026;-90
2021/11/06 17:35:47;;;;;;;17.63;13.23;;;;;;;;;;4980327;28;20037;-89
2021/11/06 17:38:13;;;;;;;19.52;12.73;;;;;;;;;;4997138;28;20022;-87
2021/11/06 17:40:39;;;;;;;16.15;11.15;;;;;;;;;;4980820;28;20058;-89
2021/11/06 17:43:05;;;;;;;17.92;13.40;;;;;;;;;;4981181;28;20049;-88
2021/11/06 17:45:32;;;;;;;13.45;9.98;;;;;;;;;;4996956;28;20030;-90
2021/11/06 17:48:00;;;;;;;9.48;6.10;;;;;;;;;;4997679;28;20026;-88
2021/11/06 17:50:31;;;;;;;8.52;5.20;;;;;;;;;;4980290;28;20098;-88
2021/11/06 17:53:07;;;;;;;8.48;5.85;;;;;;;;;;4979481;28;20035;-88
2021/11/06 17:55:34;;;;;;;9.70;6.25;;;;;;;;;;4971628;28;20077;-92
2021/11/06 17:58:00;;;;;;;10.23;5.97;;;;;;;;;;4979575;28;20117;-92
2021/11/06 18:00:26;;;;;;;10.57;7.00;;;;;;;;;;4979919;28;20116;-89
2021/11/06 18:02:53;;;;;;;9.98;6.53;;;;;;;;;;4995768;28;20093;-89
2021/11/06 18:05:19;;;;;;;11.05;7.10;;;;;;;;;;4997702;28;20030;-89
2021/11/06 18:07:45;;;;;;;12.27;7.00;;;;;;;;;;4992341;28;20679;-90
2021/11/06 18:10:13;;;;;;;10.75;7.07;;;;;;;;;;4994939;28;20149;-89
2021/11/06 18:12:39;;;;;;;9.93;7.10;;;;;;;;;;4992508;28;20125;-89
2021/11/06 18:15:06;;;;;;;9.75;6.50;;;;;;;;;;4992676;28;20026;-89
2021/11/06 18:17:32;;;;;;;11.43;7.88;;;;;;;;;;4979288;28;20500;-89
2021/11/06 18:19:58;;;;;;;12.38;8.00;;;;;;;;;;4976276;28;20169;-90
2021/11/06 18:22:24;;;;;;;11.23;7.28;;;;;;;;;;4976270;28;20096;-89
2021/11/06 18:24:51;;;;;;;10.68;7.45;;;;;;;;;;4976439;28;20022;-89
2021/11/06 18:27:17;;;;;;;10.45;7.32;;;;;;;;;;4976130;28;20038;-89
2021/11/06 18:29:44;;;;;;;12.00;7.40;;;;;;;;;;4970692;28;20374;-91